コモドロリバダビア の空港の天気 - METARとTAF

Comodoro Rivadavia Aerodrome ( SAVC / CRD ) - アルゼンチン チュブ州コモドロリバダビア
飛行場実況気象(Metar)
観測時間01/19 08:00 ART (01/19 11:00 UTC)
風向・風速不定 1m/s
視程10km以上
天気現象
なし
気温23℃
湿度38%
気圧1009hPa
METARSAVC 191100Z VRB02KT CAVOK 23/08 Q1009
過去の天気等 Google飛行場航空写真 Wunderground天気予報

過去48時間のMETAR

飛行場予報(TAF)
発表時間: 1/19 02:00 ART (1/19 05:00 UTC)
予報対象時間: 19日3時 ART ~ 20日3時 ART
風向・風速西 5m/s
視程10km以上
なし
19日9時 ART ~ 19日12時 ART に徐々に
風向・風速北西 8m/s
20日0時 ART ~ 20日2時 ART に徐々に
風向・風速西 10m/s 瞬間風速 15m/s
TAF SAVC 190500Z 1906/2006 27010KT CAVOK TX35/1919Z TN18/1910Z
BECMG 1912/1915 32015KT
BECMG 2003/2005 27020G30KT